sensor_id;sensor_type;location;lat;lon;timestamp;pressure;altitude;pressure_sealevel;temperature;humidity
19150;BME280;9707;49.158;8.632;2023-02-28T00:01:26;101300.16;;;15.63;25.04
19150;BME280;9707;49.158;8.632;2023-02-28T00:03:51;101293.84;;;15.64;25.03
19150;BME280;9707;49.158;8.632;2023-02-28T00:06:17;101294.72;;;15.64;24.87
19150;BME280;9707;49.158;8.632;2023-02-28T00:08:42;101295.59;;;15.65;24.80
19150;BME280;9707;49.158;8.632;2023-02-28T00:11:11;101295.59;;;15.65;24.89
19150;BME280;9707;49.158;8.632;2023-02-28T00:13:38;101294.66;;;15.66;24.91
19150;BME280;9707;49.158;8.632;2023-02-28T00:16:07;101291.97;;;15.66;25.22
19150;BME280;9707;49.158;8.632;2023-02-28T00:18:33;101289.34;;;15.64;24.96
19150;BME280;9707;49.158;8.632;2023-02-28T00:20:59;101290.31;;;15.63;24.79
19150;BME280;9707;49.158;8.632;2023-02-28T00:23:25;101287.69;;;15.62;25.00
19150;BME280;9707;49.158;8.632;2023-02-28T00:25:50;101295.72;;;15.62;24.68
19150;BME280;9707;49.158;8.632;2023-02-28T00:28:16;101290.34;;;15.62;25.62
19150;BME280;9707;49.158;8.632;2023-02-28T00:30:42;101288.56;;;15.62;25.06
19150;BME280;9707;49.158;8.632;2023-02-28T00:33:07;101291.25;;;15.62;24.69
19150;BME280;9707;49.158;8.632;2023-02-28T00:35:33;101292.25;;;15.60;24.65
19150;BME280;9707;49.158;8.632;2023-02-28T00:37:58;101286.00;;;15.59;24.63
19150;BME280;9707;49.158;8.632;2023-02-28T00:40:23;101281.56;;;15.58;25.02
19150;BME280;9707;49.158;8.632;2023-02-28T00:42:49;101291.50;;;15.56;24.83
19150;BME280;9707;49.158;8.632;2023-02-28T00:45:14;101282.66;;;15.54;25.48
19150;BME280;9707;49.158;8.632;2023-02-28T00:47:39;101294.28;;;15.55;25.29
19150;BME280;9707;49.158;8.632;2023-02-28T00:50:05;101296.00;;;15.56;24.94
19150;BME280;9707;49.158;8.632;2023-02-28T00:52:31;101290.66;;;15.56;24.98
19150;BME280;9707;49.158;8.632;2023-02-28T00:54:56;101288.91;;;15.55;25.59
19150;BME280;9707;49.158;8.632;2023-02-28T00:57:22;101290.66;;;15.56;25.34
19150;BME280;9707;49.158;8.632;2023-02-28T00:59:47;101297.75;;;15.57;25.14
19150;BME280;9707;49.158;8.632;2023-02-28T01:02:13;101296.88;;;15.56;25.30
19150;BME280;9707;49.158;8.632;2023-02-28T01:04:38;101291.50;;;15.56;25.41
19150;BME280;9707;49.158;8.632;2023-02-28T01:07:04;101296.88;;;15.56;25.22
19150;BME280;9707;49.158;8.632;2023-02-28T01:09:29;101291.50;;;15.56;25.73
19150;BME280;9707;49.158;8.632;2023-02-28T01:11:54;101286.13;;;15.56;25.33
19150;BME280;9707;49.158;8.632;2023-02-28T01:14:20;101293.34;;;15.56;25.85
19150;BME280;9707;49.158;8.632;2023-02-28T01:16:45;101289.69;;;15.57;25.49
19150;BME280;9707;49.158;8.632;2023-02-28T01:19:11;101296.88;;;15.56;25.36
19150;BME280;9707;49.158;8.632;2023-02-28T01:21:36;101288.91;;;15.55;25.68
19150;BME280;9707;49.158;8.632;2023-02-28T01:24:03;101291.59;;;15.55;25.14
19150;BME280;9707;49.158;8.632;2023-02-28T01:26:29;101288.03;;;15.54;25.14
19150;BME280;9707;49.158;8.632;2023-02-28T01:28:55;101290.78;;;15.53;25.31
19150;BME280;9707;49.158;8.632;2023-02-28T01:31:21;101288.97;;;15.53;25.21
19150;BME280;9707;49.158;8.632;2023-02-28T01:33:46;101290.78;;;15.53;25.42
19150;BME280;9707;49.158;8.632;2023-02-28T01:36:17;101289.03;;;15.52;25.03
19150;BME280;9707;49.158;8.632;2023-02-28T01:38:43;101301.66;;;15.50;25.01
19150;BME280;9707;49.158;8.632;2023-02-28T01:41:16;101287.41;;;15.48;24.93
19150;BME280;9707;49.158;8.632;2023-02-28T01:46:07;101288.44;;;15.45;25.09
19150;BME280;9707;49.158;8.632;2023-02-28T01:48:36;101285.81;;;15.44;25.30
19150;BME280;9707;49.158;8.632;2023-02-28T01:51:11;101292.06;;;15.44;24.98
19150;BME280;9707;49.158;8.632;2023-02-28T01:53:42;101285.75;;;15.45;25.83
19150;BME280;9707;49.158;8.632;2023-02-28T01:56:11;101274.16;;;15.45;25.32
19150;BME280;9707;49.158;8.632;2023-02-28T01:58:38;101282.19;;;15.45;25.36
19150;BME280;9707;49.158;8.632;2023-02-28T02:01:04;101275.94;;;15.44;25.80
19150;BME280;9707;49.158;8.632;2023-02-28T02:03:30;101277.69;;;15.45;25.62
19150;BME280;9707;49.158;8.632;2023-02-28T02:05:56;101276.75;;;15.46;25.59
19150;BME280;9707;49.158;8.632;2023-02-28T02:08:23;101274.94;;;15.47;25.51
19150;BME280;9707;49.158;8.632;2023-02-28T02:10:52;101274.94;;;15.47;25.82
19150;BME280;9707;49.158;8.632;2023-02-28T02:24:21;101263.41;;;15.45;25.19
19150;BME280;9707;49.158;8.632;2023-02-28T02:33:02;101253.84;;;15.38;25.91
19150;BME280;9707;49.158;8.632;2023-02-28T02:35:38;101253.84;;;15.38;26.28
19150;BME280;9707;49.158;8.632;2023-02-28T02:38:15;101261.78;;;15.41;26.12
19150;BME280;9707;49.158;8.632;2023-02-28T02:40:56;101266.22;;;15.42;25.90
19150;BME280;9707;49.158;8.632;2023-02-28T02:45:56;101266.09;;;15.45;26.29
19150;BME280;9707;49.158;8.632;2023-02-28T02:48:27;101269.56;;;15.47;26.12
19150;BME280;9707;49.158;8.632;2023-02-28T02:50:57;101263.25;;;15.48;25.74
19150;BME280;9707;49.158;8.632;2023-02-28T02:53:34;101262.41;;;15.47;25.49
19150;BME280;9707;49.158;8.632;2023-02-28T02:56:03;101269.56;;;15.47;26.24
19150;BME280;9707;49.158;8.632;2023-02-28T02:58:35;101266.88;;;15.47;26.10
19150;BME280;9707;49.158;8.632;2023-02-28T03:01:08;101259.72;;;15.47;26.23
19150;BME280;9707;49.158;8.632;2023-02-28T03:03:35;101259.72;;;15.47;26.13
19150;BME280;9707;49.158;8.632;2023-02-28T03:06:01;101262.47;;;15.46;25.56
19150;BME280;9707;49.158;8.632;2023-02-28T03:08:28;101258.94;;;15.44;25.46
19150;BME280;9707;49.158;8.632;2023-02-28T03:10:59;101258.94;;;15.44;25.62
19150;BME280;9707;49.158;8.632;2023-02-28T03:27:08;101255.34;;;15.45;26.28
19150;BME280;9707;49.158;8.632;2023-02-28T03:29:38;101253.47;;;15.47;26.00
19150;BME280;9707;49.158;8.632;2023-02-28T03:32:18;101260.56;;;15.48;25.67
19150;BME280;9707;49.158;8.632;2023-02-28T03:34:53;101256.19;;;15.45;26.22
19150;BME280;9707;49.158;8.632;2023-02-28T03:37:22;101260.72;;;15.45;25.63
19150;BME280;9707;49.158;8.632;2023-02-28T03:39:57;101255.34;;;15.45;25.69
19150;BME280;9707;49.158;8.632;2023-02-28T03:42:27;101250.84;;;15.45;25.96
19150;BME280;9707;49.158;8.632;2023-02-28T03:50:40;101249.22;;;15.41;26.12
19150;BME280;9707;49.158;8.632;2023-02-28T03:53:17;101253.75;;;15.41;25.93
19150;BME280;9707;49.158;8.632;2023-02-28T03:55:48;101250.09;;;15.42;26.82
19150;BME280;9707;49.158;8.632;2023-02-28T03:58:20;101250.91;;;15.44;25.95
19150;BME280;9707;49.158;8.632;2023-02-28T04:00:52;101241.03;;;15.44;25.93
19150;BME280;9707;49.158;8.632;2023-02-28T04:03:20;101252.56;;;15.46;26.93
19150;BME280;9707;49.158;8.632;2023-02-28T04:05:55;101256.16;;;15.47;26.52
19150;BME280;9707;49.158;8.632;2023-02-28T04:08:22;101256.94;;;15.49;26.05
19150;BME280;9707;49.158;8.632;2023-02-28T04:10:55;101256.94;;;15.49;26.41
19150;BME280;9707;49.158;8.632;2023-02-28T04:13:22;101254.25;;;15.49;26.21
19150;BME280;9707;49.158;8.632;2023-02-28T04:15:47;101253.34;;;15.50;26.19
19150;BME280;9707;49.158;8.632;2023-02-28T04:18:13;101248.81;;;15.50;27.13
19150;BME280;9707;49.158;8.632;2023-02-28T04:20:38;101256.75;;;15.53;26.36
19150;BME280;9707;49.158;8.632;2023-02-28T04:23:03;101256.69;;;15.55;27.02
19150;BME280;9707;49.158;8.632;2023-02-28T04:25:29;101251.38;;;15.53;26.46
19150;BME280;9707;49.158;8.632;2023-02-28T04:27:54;101261.16;;;15.54;26.75
19150;BME280;9707;49.158;8.632;2023-02-28T04:30:19;101253.19;;;15.53;26.74
19150;BME280;9707;49.158;8.632;2023-02-28T04:32:45;101257.47;;;15.57;26.56
19150;BME280;9707;49.158;8.632;2023-02-28T04:35:10;101252.09;;;15.57;26.71
19150;BME280;9707;49.158;8.632;2023-02-28T04:37:35;101249.41;;;15.57;26.05
19150;BME280;9707;49.158;8.632;2023-02-28T04:40:02;101249.41;;;15.57;25.91
19150;BME280;9707;49.158;8.632;2023-02-28T04:42:28;101252.09;;;15.57;26.60
19150;BME280;9707;49.158;8.632;2023-02-28T04:45:00;101251.31;;;15.55;26.28
19150;BME280;9707;49.158;8.632;2023-02-28T04:47:25;101246.84;;;15.54;25.54
19150;BME280;9707;49.158;8.632;2023-02-28T04:49:50;101253.19;;;15.53;25.99
19150;BME280;9707;49.158;8.632;2023-02-28T04:52:15;101247.81;;;15.53;26.21
19150;BME280;9707;49.158;8.632;2023-02-28T04:54:41;101251.44;;;15.52;26.33
19150;BME280;9707;49.158;8.632;2023-02-28T04:57:06;101249.63;;;15.52;26.35
19150;BME280;9707;49.158;8.632;2023-02-28T04:59:31;101265.66;;;15.54;26.78
19150;BME280;9707;49.158;8.632;2023-02-28T05:01:57;101270.09;;;15.55;26.10
19150;BME280;9707;49.158;8.632;2023-02-28T05:04:23;101267.41;;;15.55;26.46
19150;BME280;9707;49.158;8.632;2023-02-28T05:06:48;101269.16;;;15.56;26.16
19150;BME280;9707;49.158;8.632;2023-02-28T05:09:15;101263.78;;;15.56;26.29
19150;BME280;9707;49.158;8.632;2023-02-28T05:11:41;101264.63;;;15.56;25.98
19150;BME280;9707;49.158;8.632;2023-02-28T05:14:12;101262.06;;;15.55;25.68
19150;BME280;9707;49.158;8.632;2023-02-28T05:16:38;101257.59;;;15.54;26.42
19150;BME280;9707;49.158;8.632;2023-02-28T05:19:03;101263.78;;;15.56;26.52
19150;BME280;9707;49.158;8.632;2023-02-28T05:21:37;101258.25;;;15.59;27.04
19150;BME280;9707;49.158;8.632;2023-02-28T05:24:05;101272.56;;;15.59;25.85
19150;BME280;9707;49.158;8.632;2023-02-28T05:26:35;101271.78;;;15.57;26.18
19150;BME280;9707;49.158;8.632;2023-02-28T05:29:00;101270.91;;;15.57;25.83
19150;BME280;9707;49.158;8.632;2023-02-28T05:31:28;101274.53;;;15.56;25.47
19150;BME280;9707;49.158;8.632;2023-02-28T05:33:53;101274.59;;;15.54;25.86
19150;BME280;9707;49.158;8.632;2023-02-28T05:36:19;101274.66;;;15.53;26.13
19150;BME280;9707;49.158;8.632;2023-02-28T05:38:48;101279.00;;;15.55;26.47
19150;BME280;9707;49.158;8.632;2023-02-28T05:41:14;101277.16;;;15.57;26.83
19150;BME280;9707;49.158;8.632;2023-02-28T05:43:40;101285.00;;;15.62;27.18
19150;BME280;9707;49.158;8.632;2023-02-28T05:46:07;101278.59;;;15.64;25.84
19150;BME280;9707;49.158;8.632;2023-02-28T05:48:34;101275.97;;;15.63;26.06
19150;BME280;9707;49.158;8.632;2023-02-28T05:50:59;101277.81;;;15.62;26.92
19150;BME280;9707;49.158;8.632;2023-02-28T05:53:25;101283.09;;;15.64;26.82
19150;BME280;9707;49.158;8.632;2023-02-28T05:55:51;101281.22;;;15.66;26.75
19150;BME280;9707;49.158;8.632;2023-02-28T05:58:16;101281.22;;;15.66;25.48
19150;BME280;9707;49.158;8.632;2023-02-28T06:00:41;101272.44;;;15.62;25.69
19150;BME280;9707;49.158;8.632;2023-02-28T06:03:07;101284.09;;;15.61;26.52
19150;BME280;9707;49.158;8.632;2023-02-28T06:05:32;101280.56;;;15.61;26.31
19150;BME280;9707;49.158;8.632;2023-02-28T06:07:58;101281.50;;;15.60;25.76
19150;BME280;9707;49.158;8.632;2023-02-28T06:10:23;101289.69;;;15.57;25.24
19150;BME280;9707;49.158;8.632;2023-02-28T06:12:48;101279.09;;;15.54;25.73
19150;BME280;9707;49.158;8.632;2023-02-28T06:15:15;101276.38;;;15.54;26.75
19150;BME280;9707;49.158;8.632;2023-02-28T06:17:41;101284.38;;;15.55;25.74
19150;BME280;9707;49.158;8.632;2023-02-28T06:20:08;101287.06;;;15.55;26.74
19150;BME280;9707;49.158;8.632;2023-02-28T06:22:35;101279.00;;;15.55;25.97
19150;BME280;9707;49.158;8.632;2023-02-28T06:25:00;101287.97;;;15.56;26.82
19150;BME280;9707;49.158;8.632;2023-02-28T06:27:26;101291.44;;;15.58;26.75
19150;BME280;9707;49.158;8.632;2023-02-28T06:29:54;101290.47;;;15.59;25.75
19150;BME280;9707;49.158;8.632;2023-02-28T06:32:20;101295.84;;;15.59;26.99
19150;BME280;9707;49.158;8.632;2023-02-28T06:34:45;101295.78;;;15.60;27.06
19150;BME280;9707;49.158;8.632;2023-02-28T06:37:10;101297.47;;;15.63;26.71
19150;BME280;9707;49.158;8.632;2023-02-28T06:39:36;101298.28;;;15.65;25.86
19150;BME280;9707;49.158;8.632;2023-02-28T06:42:01;101306.34;;;15.65;26.35
19150;BME280;9707;49.158;8.632;2023-02-28T06:44:26;101300.97;;;15.65;27.02
19150;BME280;9707;49.158;8.632;2023-02-28T06:46:52;101305.41;;;15.66;25.95
19150;BME280;9707;49.158;8.632;2023-02-28T06:49:17;101302.78;;;15.64;26.17
19150;BME280;9707;49.158;8.632;2023-02-28T06:51:44;101307.44;;;15.61;25.46
19150;BME280;9707;49.158;8.632;2023-02-28T06:54:12;101311.13;;;15.58;25.70
19150;BME280;9707;49.158;8.632;2023-02-28T06:56:37;101314.66;;;15.59;27.06
19150;BME280;9707;49.158;8.632;2023-02-28T06:59:03;101319.03;;;15.61;26.60
19150;BME280;9707;49.158;8.632;2023-02-28T07:01:29;101323.38;;;15.64;27.31
19150;BME280;9707;49.158;8.632;2023-02-28T07:03:57;101330.38;;;15.68;26.88
19150;BME280;9707;49.158;8.632;2023-02-28T07:06:23;101329.41;;;15.69;26.16
19150;BME280;9707;49.158;8.632;2023-02-28T07:08:50;101325.00;;;15.68;26.45
19150;BME280;9707;49.158;8.632;2023-02-28T07:11:17;101330.31;;;15.69;26.60
19150;BME280;9707;49.158;8.632;2023-02-28T07:13:42;101333.78;;;15.71;26.43
19150;BME280;9707;49.158;8.632;2023-02-28T07:16:10;101336.41;;;15.73;26.63
19150;BME280;9707;49.158;8.632;2023-02-28T07:18:36;101339.03;;;15.74;26.79
19150;BME280;9707;49.158;8.632;2023-02-28T07:21:06;101334.53;;;15.75;25.84
19150;BME280;9707;49.158;8.632;2023-02-28T07:23:32;101346.19;;;15.74;26.44
19150;BME280;9707;49.158;8.632;2023-02-28T07:25:57;101347.03;;;15.76;26.53
19150;BME280;9707;49.158;8.632;2023-02-28T07:28:23;101347.03;;;15.76;26.04
19150;BME280;9707;49.158;8.632;2023-02-28T07:30:48;101353.34;;;15.75;26.47
19150;BME280;9707;49.158;8.632;2023-02-28T07:33:14;101350.56;;;15.76;26.66
19150;BME280;9707;49.158;8.632;2023-02-28T07:35:39;101352.25;;;15.79;26.68
19150;BME280;9707;49.158;8.632;2023-02-28T07:38:05;101352.13;;;15.82;26.72
19150;BME280;9707;49.158;8.632;2023-02-28T07:40:33;101355.59;;;15.84;26.45
19150;BME280;9707;49.158;8.632;2023-02-28T07:43:02;101345.75;;;15.84;26.41
19150;BME280;9707;49.158;8.632;2023-02-28T07:45:28;101346.63;;;15.85;26.97
19150;BME280;9707;49.158;8.632;2023-02-28T07:47:55;101345.50;;;15.89;26.44
19150;BME280;9707;49.158;8.632;2023-02-28T07:50:21;101348.13;;;15.90;26.80
19150;BME280;9707;49.158;8.632;2023-02-28T07:52:46;101357.88;;;15.93;26.13
19150;BME280;9707;49.158;8.632;2023-02-28T07:55:12;101351.56;;;15.94;26.43
19150;BME280;9707;49.158;8.632;2023-02-28T07:57:39;101356.94;;;15.94;26.59
19150;BME280;9707;49.158;8.632;2023-02-28T08:00:05;101348.81;;;15.95;26.42
19150;BME280;9707;49.158;8.632;2023-02-28T08:02:31;101346.94;;;15.97;26.84
19150;BME280;9707;49.158;8.632;2023-02-28T08:04:56;101360.28;;;15.99;26.62
19150;BME280;9707;49.158;8.632;2023-02-28T08:07:22;101354.78;;;16.02;27.08
19150;BME280;9707;49.158;8.632;2023-02-28T08:09:47;101358.25;;;16.04;26.39
19150;BME280;9707;49.158;8.632;2023-02-28T08:12:12;101359.22;;;16.03;26.08
19150;BME280;9707;49.158;8.632;2023-02-28T08:14:38;101361.94;;;16.01;26.13
19150;BME280;9707;49.158;8.632;2023-02-28T08:17:03;101359.38;;;16.00;25.92
19150;BME280;9707;49.158;8.632;2023-02-28T08:19:29;101369.28;;;15.98;25.81
19150;BME280;9707;49.158;8.632;2023-02-28T08:21:55;101358.59;;;15.96;26.16
19150;BME280;9707;49.158;8.632;2023-02-28T08:24:21;101364.88;;;15.97;27.15
19150;BME280;9707;49.158;8.632;2023-02-28T08:26:46;101367.44;;;16.00;26.13
19150;BME280;9707;49.158;8.632;2023-02-28T08:29:11;101359.44;;;15.98;25.71
19150;BME280;9707;49.158;8.632;2023-02-28T08:31:37;101356.81;;;15.97;25.88
19150;BME280;9707;49.158;8.632;2023-02-28T08:34:07;101363.06;;;15.97;26.26
19150;BME280;9707;49.158;8.632;2023-02-28T08:36:33;101360.22;;;16.00;26.32
19150;BME280;9707;49.158;8.632;2023-02-28T08:38:58;101354.06;;;15.98;24.65
19150;BME280;9707;49.158;8.632;2023-02-28T08:41:24;101364.06;;;15.95;26.20
19150;BME280;9707;49.158;8.632;2023-02-28T08:43:52;101358.59;;;15.96;26.57
19150;BME280;9707;49.158;8.632;2023-02-28T08:46:19;101358.53;;;15.98;25.63
19150;BME280;9707;49.158;8.632;2023-02-28T08:48:44;101359.44;;;15.98;26.57
19150;BME280;9707;49.158;8.632;2023-02-28T08:51:15;101354.13;;;15.97;25.51
19150;BME280;9707;49.158;8.632;2023-02-28T08:53:43;101359.63;;;15.94;26.29
19150;BME280;9707;49.158;8.632;2023-02-28T08:56:13;101361.38;;;15.95;27.04
19150;BME280;9707;49.158;8.632;2023-02-28T08:58:39;101365.59;;;16.00;26.20
19150;BME280;9707;49.158;8.632;2023-02-28T09:01:28;101360.28;;;15.99;25.16
19150;BME280;9707;49.158;8.632;2023-02-28T09:03:55;101357.03;;;15.92;24.67
19150;BME280;9707;49.158;8.632;2023-02-28T09:06:23;101354.59;;;15.86;24.64
19150;BME280;9707;49.158;8.632;2023-02-28T09:08:48;101360.25;;;15.80;24.08
19150;BME280;9707;49.158;8.632;2023-02-28T09:11:14;101350.72;;;15.73;25.36
19150;BME280;9707;49.158;8.632;2023-02-28T09:13:40;101355.88;;;15.78;25.66
19150;BME280;9707;49.158;8.632;2023-02-28T09:16:08;101354.88;;;15.80;25.74
19150;BME280;9707;49.158;8.632;2023-02-28T09:18:35;101361.13;;;15.81;24.43
19150;BME280;9707;49.158;8.632;2023-02-28T09:21:05;101354.13;;;15.77;24.27
19150;BME280;9707;49.158;8.632;2023-02-28T09:23:30;101355.38;;;15.70;23.85
19150;BME280;9707;49.158;8.632;2023-02-28T09:25:58;101356.44;;;15.66;24.69
19150;BME280;9707;49.158;8.632;2023-02-28T09:28:24;101354.53;;;15.68;25.04
19150;BME280;9707;49.158;8.632;2023-02-28T09:30:52;101359.84;;;15.69;24.63
19150;BME280;9707;49.158;8.632;2023-02-28T09:33:18;101358.06;;;15.70;24.99
19150;BME280;9707;49.158;8.632;2023-02-28T09:35:46;101357.91;;;15.73;25.70
19150;BME280;9707;49.158;8.632;2023-02-28T09:38:12;101354.88;;;15.80;27.37
19150;BME280;9707;49.158;8.632;2023-02-28T09:40:51;101355.41;;;15.88;25.72
19150;BME280;9707;49.158;8.632;2023-02-28T09:43:20;101354.19;;;15.95;27.43
19150;BME280;9707;49.158;8.632;2023-02-28T09:45:55;101353.88;;;16.01;25.31
19150;BME280;9707;49.158;8.632;2023-02-28T09:48:28;101349.28;;;16.05;27.73
19150;BME280;9707;49.158;8.632;2023-02-28T09:51:03;101353.53;;;16.09;27.05
19150;BME280;9707;49.158;8.632;2023-02-28T09:53:32;101357.72;;;16.16;26.23
19150;BME280;9707;49.158;8.632;2023-02-28T09:56:22;101350.44;;;16.18;25.23
19150;BME280;9707;49.158;8.632;2023-02-28T10:01:40;101355.09;;;16.14;25.35
19150;BME280;9707;49.158;8.632;2023-02-28T10:06:45;101349.84;;;16.11;25.99
19150;BME280;9707;49.158;8.632;2023-02-28T10:09:17;101347.97;;;16.13;25.45
19150;BME280;9707;49.158;8.632;2023-02-28T10:11:46;101357.53;;;16.19;26.83
19150;BME280;9707;49.158;8.632;2023-02-28T10:16:41;101358.09;;;16.27;25.47
19150;BME280;9707;49.158;8.632;2023-02-28T10:29:44;101360.34;;;16.36;27.49
19150;BME280;9707;49.158;8.632;2023-02-28T10:32:14;101359.13;;;16.43;27.69
19150;BME280;9707;49.158;8.632;2023-02-28T10:34:40;101359.66;;;16.51;28.16
19150;BME280;9707;49.158;8.632;2023-02-28T10:37:06;101367.41;;;16.57;27.05
19150;BME280;9707;49.158;8.632;2023-02-28T10:39:38;101360.06;;;16.60;26.55
19150;BME280;9707;49.158;8.632;2023-02-28T10:42:05;101356.38;;;16.63;27.04
19150;BME280;9707;49.158;8.632;2023-02-28T10:44:43;101362.47;;;16.66;27.77
19150;BME280;9707;49.158;8.632;2023-02-28T10:47:15;101355.09;;;16.70;27.24
19150;BME280;9707;49.158;8.632;2023-02-28T10:49:47;101360.22;;;16.76;28.21
19150;BME280;9707;49.158;8.632;2023-02-28T10:52:13;101354.53;;;16.82;26.08
19150;BME280;9707;49.158;8.632;2023-02-28T10:54:39;101354.53;;;16.82;27.07
19150;BME280;9707;49.158;8.632;2023-02-28T10:57:21;101358.88;;;16.84;27.70
19150;BME280;9707;49.158;8.632;2023-02-28T10:59:51;101354.28;;;16.86;27.29
19150;BME280;9707;49.158;8.632;2023-02-28T11:02:38;101357.63;;;16.91;26.76
19150;BME280;9707;49.158;8.632;2023-02-28T11:05:30;101354.88;;;16.93;26.63
19150;BME280;9707;49.158;8.632;2023-02-28T11:08:10;101346.63;;;16.96;28.26
19150;BME280;9707;49.158;8.632;2023-02-28T11:10:37;101343.72;;;17.00;28.35
19150;BME280;9707;49.158;8.632;2023-02-28T11:13:03;101336.28;;;17.05;28.34
19150;BME280;9707;49.158;8.632;2023-02-28T11:15:32;101339.63;;;17.10;28.20
19150;BME280;9707;49.158;8.632;2023-02-28T11:18:21;101331.28;;;17.15;28.30
19150;BME280;9707;49.158;8.632;2023-02-28T11:20:49;101334.63;;;17.20;25.61
19150;BME280;9707;49.158;8.632;2023-02-28T11:23:16;101336.59;;;17.16;26.79
19150;BME280;9707;49.158;8.632;2023-02-28T11:25:48;101338.28;;;17.19;28.31
19150;BME280;9707;49.158;8.632;2023-02-28T11:33:49;101328.63;;;17.32;27.18
19150;BME280;9707;49.158;8.632;2023-02-28T11:36:24;101320.69;;;17.29;24.95
19150;BME280;9707;49.158;8.632;2023-02-28T11:38:51;101321.97;;;17.22;24.25
19150;BME280;9707;49.158;8.632;2023-02-28T11:41:24;101325.91;;;17.15;23.62
19150;BME280;9707;49.158;8.632;2023-02-28T11:49:35;101314.19;;;16.99;25.28
19150;BME280;9707;49.158;8.632;2023-02-28T12:11:16;101314.19;;;16.99;25.65
19150;BME280;9707;49.158;8.632;2023-02-28T12:13:53;101308.72;;;17.00;24.13
19150;BME280;9707;49.158;8.632;2023-02-28T12:16:29;101318.47;;;17.03;24.36
19150;BME280;9707;49.158;8.632;2023-02-28T12:27:13;101311.97;;;17.07;25.20
19150;BME280;9707;49.158;8.632;2023-02-28T12:29:51;101311.88;;;17.08;23.58
19150;BME280;9707;49.158;8.632;2023-02-28T12:32:30;101312.84;;;17.07;23.52
19150;BME280;9707;49.158;8.632;2023-02-28T12:35:03;101308.47;;;17.05;23.23
19150;BME280;9707;49.158;8.632;2023-02-28T12:37:34;101306.88;;;17.01;23.23
19150;BME280;9707;49.158;8.632;2023-02-28T12:40:11;101298.91;;;16.99;24.87
19150;BME280;9707;49.158;8.632;2023-02-28T12:42:48;101303.16;;;17.03;23.88
19150;BME280;9707;49.158;8.632;2023-02-28T12:45:29;101300.25;;;17.08;24.85
19150;BME280;9707;49.158;8.632;2023-02-28T12:48:00;101299.16;;;17.12;24.45
19150;BME280;9707;49.158;8.632;2023-02-28T12:50:28;101299.94;;;17.14;23.55
19150;BME280;9707;49.158;8.632;2023-02-28T12:53:03;101291.88;;;17.14;23.38
19150;BME280;9707;49.158;8.632;2023-02-28T12:58:50;101296.94;;;17.20;23.74
19150;BME280;9707;49.158;8.632;2023-02-28T13:04:38;101278.63;;;17.26;25.29
19150;BME280;9707;49.158;8.632;2023-02-28T13:09:57;101285.69;;;17.29;25.02
19150;BME280;9707;49.158;8.632;2023-02-28T13:12:24;101287.41;;;17.30;25.55
19150;BME280;9707;49.158;8.632;2023-02-28T13:14:52;101286.25;;;17.35;26.10
19150;BME280;9707;49.158;8.632;2023-02-28T13:17:26;101293.06;;;17.42;25.77
19150;BME280;9707;49.158;8.632;2023-02-28T13:27:54;101279.81;;;17.38;25.35
19150;BME280;9707;49.158;8.632;2023-02-28T13:33:34;101287.69;;;17.42;24.15
19150;BME280;9707;49.158;8.632;2023-02-28T13:38:38;101283.34;;;17.40;23.33
19150;BME280;9707;49.158;8.632;2023-02-28T13:44:07;101286.41;;;17.32;23.90
19150;BME280;9707;49.158;8.632;2023-02-28T13:46:35;101280.16;;;17.32;24.73
19150;BME280;9707;49.158;8.632;2023-02-28T13:49:27;101287.19;;;17.34;23.69
19150;BME280;9707;49.158;8.632;2023-02-28T13:54:52;101295.00;;;17.40;25.07
19150;BME280;9707;49.158;8.632;2023-02-28T14:00:19;101291.91;;;17.48;23.58
19150;BME280;9707;49.158;8.632;2023-02-28T14:06:13;101285.53;;;17.49;25.46
19150;BME280;9707;49.158;8.632;2023-02-28T14:11:38;101287.91;;;17.55;25.67
19150;BME280;9707;49.158;8.632;2023-02-28T14:14:06;101290.28;;;17.61;25.29
19150;BME280;9707;49.158;8.632;2023-02-28T14:19:12;101291.22;;;17.60;23.92
19150;BME280;9707;49.158;8.632;2023-02-28T14:21:46;101294.06;;;17.57;24.73
19150;BME280;9707;49.158;8.632;2023-02-28T14:24:42;101285.91;;;17.58;25.94
19150;BME280;9707;49.158;8.632;2023-02-28T14:27:37;101289.16;;;17.65;26.38
19150;BME280;9707;49.158;8.632;2023-02-28T14:30:36;101297.88;;;17.70;24.63
19150;BME280;9707;49.158;8.632;2023-02-28T14:36:18;101289.09;;;17.66;24.20
19150;BME280;9707;49.158;8.632;2023-02-28T14:38:54;101289.16;;;17.65;24.17
19150;BME280;9707;49.158;8.632;2023-02-28T14:41:30;101288.28;;;17.64;25.94
19150;BME280;9707;49.158;8.632;2023-02-28T14:43:58;101285.34;;;17.69;26.37
19150;BME280;9707;49.158;8.632;2023-02-28T14:46:28;101279.63;;;17.75;25.11
19150;BME280;9707;49.158;8.632;2023-02-28T14:48:55;101280.41;;;17.77;24.66
19150;BME280;9707;49.158;8.632;2023-02-28T14:51:22;101284.13;;;17.74;23.86
19150;BME280;9707;49.158;8.632;2023-02-28T14:53:56;101280.66;;;17.72;23.95
19150;BME280;9707;49.158;8.632;2023-02-28T14:56:42;101283.44;;;17.71;24.58
19150;BME280;9707;49.158;8.632;2023-02-28T14:59:30;101285.16;;;17.72;23.76
19150;BME280;9707;49.158;8.632;2023-02-28T15:02:22;101282.66;;;17.69;23.86
19150;BME280;9707;49.158;8.632;2023-02-28T15:07:34;101287.25;;;17.67;24.84
19150;BME280;9707;49.158;8.632;2023-02-28T15:10:32;101285.34;;;17.69;24.34
19150;BME280;9707;49.158;8.632;2023-02-28T15:13:02;101281.69;;;17.70;24.69
19150;BME280;9707;49.158;8.632;2023-02-28T15:15:42;101284.31;;;17.71;26.14
19150;BME280;9707;49.158;8.632;2023-02-28T15:18:16;101290.25;;;17.78;26.32
19150;BME280;9707;49.158;8.632;2023-02-28T15:20:46;101286.41;;;17.82;25.00
19150;BME280;9707;49.158;8.632;2023-02-28T15:23:15;101289.03;;;17.83;24.58
19150;BME280;9707;49.158;8.632;2023-02-28T15:25:41;101284.53;;;17.84;24.04
19150;BME280;9707;49.158;8.632;2023-02-28T15:28:12;101283.72;;;17.82;23.82
19150;BME280;9707;49.158;8.632;2023-02-28T15:30:39;101287.38;;;17.81;23.91
19150;BME280;9707;49.158;8.632;2023-02-28T15:35:33;101280.34;;;17.78;24.51
19150;BME280;9707;49.158;8.632;2023-02-28T15:38:13;101291.09;;;17.78;23.64